Time;durP1;ratioP1;P1;durP2;ratioP2;P2;SDS_P1;SDS_P2;PMS_P1;PMS_P2;Temp;Humidity;BMP_temperature;BMP_pressure;BME280_temperature;BME280_humidity;BME280_pressure;Samples;Min_cycle;Max_cycle;Signal;HPM_P1;HPM_P2
2024/04/15 00:00:42;;;;;;;;;;;15.70;96.80;;;;;;5475289;26;19928;-48
2024/04/15 00:03:08;;;;;;;;;;;15.70;96.80;;;;;;5466658;26;19934;-48
2024/04/15 00:05:34;;;;;;;;;;;15.60;96.80;;;;;;5472120;26;19928;-48
2024/04/15 00:07:59;;;;;;;;;;;15.70;96.80;;;;;;5465987;26;19931;-48
2024/04/15 00:10:25;;;;;;;;;;;15.70;96.80;;;;;;5474587;26;19928;-48
2024/04/15 00:12:51;;;;;;;;;;;15.60;96.80;;;;;;5464842;26;19928;-48
2024/04/15 00:15:17;;;;;;;;;;;15.60;96.90;;;;;;5472566;26;19928;-48
2024/04/15 00:17:42;;;;;;;;;;;15.60;97.10;;;;;;5463058;26;19936;-48
2024/04/15 00:20:08;;;;;;;;;;;15.60;97.00;;;;;;5457022;26;20312;-47
2024/04/15 00:22:34;;;;;;;;;;;15.60;97.10;;;;;;5461599;26;19929;-48
2024/04/15 00:24:59;;;;;;;;;;;15.60;97.20;;;;;;5469472;26;19928;-48
2024/04/15 00:27:24;;;;;;;;;;;15.60;97.20;;;;;;5463279;26;19939;-48
2024/04/15 00:29:50;;;;;;;;;;;15.60;97.20;;;;;;5468265;26;20321;-49
2024/04/15 00:32:15;;;;;;;;;;;15.60;97.30;;;;;;5462788;26;20291;-48
2024/04/15 00:34:41;;;;;;;;;;;15.60;97.40;;;;;;5467255;26;19974;-48
2024/04/15 00:37:07;;;;;;;;;;;15.60;97.50;;;;;;5446463;26;20009;-48
2024/04/15 00:39:32;;;;;;;;;;;15.60;97.30;;;;;;5446620;26;19941;-49
2024/04/15 00:41:58;;;;;;;;;;;15.60;97.40;;;;;;5422428;26;19944;-49
2024/04/15 00:44:33;;;;;;;;;;;15.60;97.20;;;;;;5463537;26;19929;-49
2024/04/15 00:46:59;;;;;;;;;;;15.60;97.20;;;;;;5460012;26;20013;-48
2024/04/15 00:49:25;;;;;;;;;;;15.60;97.20;;;;;;5462249;26;19937;-47
2024/04/15 00:51:50;;;;;;;;;;;15.60;97.20;;;;;;5459247;26;20479;-48
2024/04/15 00:54:16;;;;;;;;;;;15.60;97.30;;;;;;5460289;26;19929;-48
2024/04/15 00:56:42;;;;;;;;;;;15.50;97.30;;;;;;5458490;26;19935;-48
2024/04/15 00:59:09;;;;;;;;;;;15.50;97.30;;;;;;5458591;26;19943;-48
2024/04/15 01:01:34;;;;;;;;;;;15.60;97.40;;;;;;5444485;26;19936;-48
2024/04/15 01:04:00;;;;;;;;;;;15.50;97.30;;;;;;5457058;26;20364;-48
2024/04/15 01:06:25;;;;;;;;;;;15.50;97.20;;;;;;5455990;26;20364;-48
2024/04/15 01:08:51;;;;;;;;;;;15.50;97.30;;;;;;5456360;26;19933;-48
2024/04/15 01:11:16;;;;;;;;;;;15.50;97.20;;;;;;5458214;26;19948;-48
2024/04/15 01:13:42;;;;;;;;;;;15.50;97.30;;;;;;5468345;26;19935;-48
2024/04/15 01:16:07;;;;;;;;;;;15.50;97.50;;;;;;5488664;26;19932;-48
2024/04/15 01:18:33;;;;;;;;;;;15.50;98.10;;;;;;5477763;26;19929;-48
2024/04/15 01:20:58;;;;;;;;;;;15.50;97.70;;;;;;5477160;26;20292;-48
2024/04/15 01:23:27;;;;;;;;;;;15.40;97.60;;;;;;5487830;26;19932;-48
2024/04/15 01:25:52;;;;;;;;;;;15.40;97.70;;;;;;5483371;26;19996;-48
2024/04/15 01:28:19;;;;;;;;;;;15.40;97.70;;;;;;5481954;26;19984;-48
2024/04/15 01:30:45;;;;;;;;;;;15.40;97.70;;;;;;5475370;26;19935;-49
2024/04/15 01:33:11;;;;;;;;;;;15.40;97.70;;;;;;5451065;26;20276;-48
2024/04/15 01:35:36;;;;;;;;;;;15.40;97.70;;;;;;5479999;26;19937;-49
2024/04/15 01:38:04;;;;;;;;;;;15.40;97.70;;;;;;5438359;26;20448;-49
2024/04/15 01:40:29;;;;;;;;;;;15.40;97.80;;;;;;5472919;26;19936;-49
2024/04/15 01:42:55;;;;;;;;;;;15.40;97.70;;;;;;5451885;26;19939;-48
2024/04/15 01:45:21;;;;;;;;;;;15.30;97.60;;;;;;5476258;26;19999;-49
2024/04/15 01:47:47;;;;;;;;;;;15.30;97.60;;;;;;5452622;26;19935;-48
2024/04/15 01:50:14;;;;;;;;;;;15.30;97.60;;;;;;5476079;26;19940;-49
2024/04/15 01:52:39;;;;;;;;;;;15.30;97.40;;;;;;5483570;26;19995;-49
2024/04/15 01:55:05;;;;;;;;;;;15.30;97.30;;;;;;5473053;26;19940;-49
2024/04/15 01:57:31;;;;;;;;;;;15.30;97.20;;;;;;5455310;26;20395;-48
2024/04/15 01:59:56;;;;;;;;;;;15.20;97.20;;;;;;5462366;26;19980;-48
2024/04/15 02:02:22;;;;;;;;;;;15.20;97.10;;;;;;5482925;26;20004;-48
2024/04/15 02:04:47;;;;;;;;;;;15.20;97.10;;;;;;5464971;26;19997;-48
2024/04/15 02:07:13;;;;;;;;;;;15.20;97.00;;;;;;5468498;26;19932;-48
2024/04/15 02:09:38;;;;;;;;;;;15.20;97.00;;;;;;5470199;26;19932;-48
2024/04/15 02:12:04;;;;;;;;;;;15.20;97.00;;;;;;5469908;26;19932;-48
2024/04/15 02:14:29;;;;;;;;;;;15.20;96.90;;;;;;5466749;26;19929;-48
2024/04/15 02:16:55;;;;;;;;;;;15.10;96.90;;;;;;5476875;26;19931;-47
2024/04/15 02:19:20;;;;;;;;;;;15.10;97.00;;;;;;5466250;26;19928;-48
2024/04/15 02:21:46;;;;;;;;;;;15.10;96.90;;;;;;5475000;26;19928;-48
2024/04/15 02:24:13;;;;;;;;;;;15.10;96.80;;;;;;5465369;26;19929;-48
2024/04/15 02:26:39;;;;;;;;;;;15.10;96.70;;;;;;5455509;26;19964;-48
2024/04/15 02:29:04;;;;;;;;;;;15.10;96.80;;;;;;5458781;26;20342;-48
2024/04/15 02:31:30;;;;;;;;;;;15.00;96.70;;;;;;5430899;26;19928;-49
2024/04/15 02:33:55;;;;;;;;;;;15.00;96.80;;;;;;5450580;26;19978;-48
2024/04/15 02:36:21;;;;;;;;;;;15.00;96.80;;;;;;5451343;26;20356;-48
2024/04/15 02:38:49;;;;;;;;;;;15.00;96.70;;;;;;5438147;26;19939;-48
2024/04/15 02:41:14;;;;;;;;;;;15.00;96.70;;;;;;5452215;26;19942;-48
2024/04/15 02:43:40;;;;;;;;;;;15.00;97.20;;;;;;5454920;26;19928;-48
2024/04/15 02:46:05;;;;;;;;;;;14.90;96.60;;;;;;5454344;26;20365;-47
2024/04/15 02:48:31;;;;;;;;;;;15.00;96.60;;;;;;5455356;26;19936;-48
2024/04/15 02:50:56;;;;;;;;;;;14.90;96.60;;;;;;5454843;26;19965;-48
2024/04/15 02:53:22;;;;;;;;;;;14.90;96.60;;;;;;5454824;26;19928;-48
2024/04/15 02:55:50;;;;;;;;;;;14.90;96.60;;;;;;5455030;26;19940;-47
2024/04/15 02:58:16;;;;;;;;;;;14.90;97.00;;;;;;5455050;26;19935;-48
2024/04/15 03:00:41;;;;;;;;;;;14.80;96.50;;;;;;5454612;26;19928;-48
2024/04/15 03:03:07;;;;;;;;;;;14.80;96.40;;;;;;5455079;26;19935;-49
2024/04/15 03:05:33;;;;;;;;;;;14.80;96.40;;;;;;5454852;26;19928;-48
2024/04/15 03:07:58;;;;;;;;;;;14.80;96.40;;;;;;5454834;26;19929;-48
2024/04/15 03:10:25;;;;;;;;;;;14.80;96.40;;;;;;5455821;26;19928;-48
2024/04/15 03:12:54;;;;;;;;;;;14.80;96.40;;;;;;5457313;26;19936;-49
2024/04/15 03:15:20;;;;;;;;;;;14.80;96.50;;;;;;5458799;26;19932;-48
2024/04/15 03:17:50;;;;;;;;;;;14.70;96.40;;;;;;5458018;26;19935;-49
2024/04/15 03:20:16;;;;;;;;;;;14.70;96.20;;;;;;5458646;26;19936;-48
2024/04/15 03:22:45;;;;;;;;;;;14.70;96.30;;;;;;5457110;26;19928;-48
2024/04/15 03:25:11;;;;;;;;;;;14.70;96.20;;;;;;5458677;26;19928;-48
2024/04/15 03:27:37;;;;;;;;;;;14.70;96.20;;;;;;5457924;26;19935;-48
2024/04/15 03:30:02;;;;;;;;;;;14.60;96.20;;;;;;5458652;26;19934;-48
2024/04/15 03:32:28;;;;;;;;;;;14.60;96.10;;;;;;5442066;26;20371;-48
2024/04/15 03:34:53;;;;;;;;;;;14.60;96.10;;;;;;5460761;26;19928;-48
2024/04/15 03:37:19;;;;;;;;;;;14.60;96.20;;;;;;5485141;26;19936;-48
2024/04/15 03:39:46;;;;;;;;;;;14.60;96.10;;;;;;5451515;26;20001;-47
2024/04/15 03:42:12;;;;;;;;;;;14.60;96.10;;;;;;5461736;26;19963;-48
2024/04/15 03:44:37;;;;;;;;;;;14.60;96.20;;;;;;5473291;26;19932;-48
2024/04/15 03:47:03;;;;;;;;;;;14.60;96.10;;;;;;5494961;26;19928;-48
2024/04/15 03:49:28;;;;;;;;;;;14.60;96.10;;;;;;5474193;26;19928;-48
2024/04/15 03:51:54;;;;;;;;;;;14.50;96.10;;;;;;5493893;26;19932;-49
2024/04/15 03:54:19;;;;;;;;;;;14.50;96.10;;;;;;5494850;26;20328;-46
2024/04/15 03:56:45;;;;;;;;;;;14.50;96.10;;;;;;5492092;26;19929;-48
2024/04/15 03:59:10;;;;;;;;;;;14.50;96.10;;;;;;5478555;26;19981;-47
2024/04/15 04:01:36;;;;;;;;;;;14.50;96.10;;;;;;5439790;26;20001;-48
2024/04/15 04:04:02;;;;;;;;;;;14.40;96.10;;;;;;5457933;26;19939;-48
2024/04/15 04:06:27;;;;;;;;;;;14.40;96.10;;;;;;5484494;26;19935;-48
2024/04/15 04:08:53;;;;;;;;;;;14.40;96.00;;;;;;5476120;26;19935;-48
2024/04/15 04:11:21;;;;;;;;;;;14.40;96.00;;;;;;5479579;26;20000;-48
2024/04/15 04:13:47;;;;;;;;;;;14.40;96.00;;;;;;5454070;26;19929;-48
2024/04/15 04:16:13;;;;;;;;;;;14.40;95.80;;;;;;5458645;26;19935;-48
2024/04/15 04:18:38;;;;;;;;;;;14.40;95.80;;;;;;5494337;26;19928;-49
2024/04/15 04:21:11;;;;;;;;;;;14.40;95.70;;;;;;5460506;26;20376;-49
2024/04/15 04:23:36;;;;;;;;;;;14.40;95.80;;;;;;5449639;26;20355;-48
2024/04/15 04:26:02;;;;;;;;;;;14.40;95.90;;;;;;5458387;26;20094;-48
2024/04/15 04:28:27;;;;;;;;;;;14.40;95.90;;;;;;5481500;26;19998;-48
2024/04/15 04:30:53;;;;;;;;;;;14.40;95.90;;;;;;5474330;26;19935;-48
2024/04/15 04:33:18;;;;;;;;;;;14.30;95.90;;;;;;5482859;26;19936;-48
2024/04/15 04:35:44;;;;;;;;;;;14.30;95.90;;;;;;5442380;26;19935;-48
2024/04/15 04:38:10;;;;;;;;;;;14.30;95.90;;;;;;5455312;26;19978;-48
2024/04/15 04:40:35;;;;;;;;;;;14.30;95.90;;;;;;5451103;26;19929;-48
2024/04/15 04:43:01;;;;;;;;;;;14.30;95.80;;;;;;5471433;26;19928;-48
2024/04/15 04:45:26;;;;;;;;;;;14.30;95.80;;;;;;5455474;26;19929;-48
2024/04/15 04:47:52;;;;;;;;;;;14.20;95.80;;;;;;5468001;26;19936;-47
2024/04/15 04:50:17;;;;;;;;;;;14.30;95.70;;;;;;5469458;26;20011;-47
2024/04/15 04:52:43;;;;;;;;;;;14.20;95.60;;;;;;5465179;26;19934;-47
2024/04/15 04:55:09;;;;;;;;;;;14.20;95.50;;;;;;5444966;26;20000;-48
2024/04/15 04:57:34;;;;;;;;;;;14.20;95.60;;;;;;5476356;26;19934;-48
2024/04/15 05:00:00;;;;;;;;;;;14.20;95.70;;;;;;5471035;26;19928;-47
2024/04/15 05:02:25;;;;;;;;;;;14.20;95.70;;;;;;5475023;26;19928;-47
2024/04/15 05:04:51;;;;;;;;;;;14.20;95.70;;;;;;5469203;26;20934;-48
2024/04/15 05:07:17;;;;;;;;;;;14.20;95.70;;;;;;5472269;26;19936;-49
2024/04/15 05:09:42;;;;;;;;;;;14.20;95.60;;;;;;5465588;26;19928;-48
2024/04/15 05:12:08;;;;;;;;;;;14.10;95.50;;;;;;5457895;26;19929;-48
2024/04/15 05:14:33;;;;;;;;;;;14.10;95.40;;;;;;5467794;26;19928;-49
2024/04/15 05:16:59;;;;;;;;;;;14.10;95.40;;;;;;5476532;26;19932;-48
2024/04/15 05:19:25;;;;;;;;;;;14.10;95.50;;;;;;5467076;26;19932;-48
2024/04/15 05:21:51;;;;;;;;;;;14.10;95.40;;;;;;5474630;26;20268;-47
2024/04/15 05:24:16;;;;;;;;;;;14.10;95.30;;;;;;5466720;26;20259;-48
2024/04/15 05:26:42;;;;;;;;;;;14.00;95.10;;;;;;5473844;26;20267;-48
2024/04/15 05:29:07;;;;;;;;;;;14.00;95.30;;;;;;5451523;26;20255;-48
2024/04/15 05:31:33;;;;;;;;;;;14.00;95.40;;;;;;5459142;26;19928;-48
2024/04/15 05:33:59;;;;;;;;;;;14.00;95.30;;;;;;5451959;26;19928;-48
2024/04/15 05:36:24;;;;;;;;;;;14.00;95.40;;;;;;5453288;26;19948;-49
2024/04/15 05:38:50;;;;;;;;;;;14.00;95.40;;;;;;5441793;26;19929;-49
2024/04/15 05:41:15;;;;;;;;;;;14.00;95.40;;;;;;5438345;26;19965;-48
2024/04/15 05:43:41;;;;;;;;;;;14.00;95.50;;;;;;5438427;26;19996;-48
2024/04/15 05:46:06;;;;;;;;;;;14.00;95.50;;;;;;5427321;26;22159;-47
2024/04/15 05:48:32;;;;;;;;;;;13.90;95.50;;;;;;5463884;26;19936;-48
2024/04/15 05:50:57;;;;;;;;;;;13.90;95.40;;;;;;5466139;26;19943;-49
2024/04/15 05:53:23;;;;;;;;;;;13.90;95.30;;;;;;5456302;26;20178;-50
2024/04/15 05:55:48;;;;;;;;;;;13.90;95.30;;;;;;5449147;26;20779;-51
2024/04/15 05:58:14;;;;;;;;;;;13.90;95.40;;;;;;5456850;26;20264;-52
2024/04/15 06:00:39;;;;;;;;;;;13.90;95.50;;;;;;5477356;26;20263;-48
2024/04/15 06:03:05;;;;;;;;;;;13.90;95.50;;;;;;5443877;26;19935;-48
2024/04/15 06:05:32;;;;;;;;;;;13.90;95.60;;;;;;5443171;26;19929;-48
2024/04/15 06:07:57;;;;;;;;;;;13.90;95.60;;;;;;5462535;26;20352;-47
2024/04/15 06:10:23;;;;;;;;;;;13.90;95.70;;;;;;5460436;26;19927;-51
2024/04/15 06:12:48;;;;;;;;;;;13.90;95.80;;;;;;5443974;26;20261;-49
2024/04/15 06:15:14;;;;;;;;;;;13.90;95.80;;;;;;5448643;26;19944;-47
2024/04/15 06:17:39;;;;;;;;;;;13.90;95.90;;;;;;5447466;26;19929;-48
2024/04/15 06:20:05;;;;;;;;;;;13.90;95.90;;;;;;5451216;26;19929;-51
2024/04/15 06:22:31;;;;;;;;;;;13.90;95.90;;;;;;5424698;26;19936;-48
2024/04/15 06:24:56;;;;;;;;;;;13.90;96.10;;;;;;5444797;26;20352;-51
2024/04/15 06:27:22;;;;;;;;;;;13.90;96.10;;;;;;5438151;26;20364;-48
2024/04/15 06:29:50;;;;;;;;;;;13.90;96.20;;;;;;5447713;26;19935;-49
2024/04/15 06:32:16;;;;;;;;;;;13.90;96.30;;;;;;5459446;26;19928;-49
2024/04/15 06:34:41;;;;;;;;;;;13.90;96.30;;;;;;5459883;26;19973;-48
2024/04/15 06:37:07;;;;;;;;;;;13.90;96.50;;;;;;5463413;26;20356;-51
2024/04/15 06:39:34;;;;;;;;;;;13.90;96.50;;;;;;5447617;26;19928;-50
2024/04/15 06:41:59;;;;;;;;;;;13.90;96.30;;;;;;5390668;26;19940;-51
2024/04/15 06:44:25;;;;;;;;;;;13.90;96.60;;;;;;5436986;26;20014;-52
2024/04/15 06:46:50;;;;;;;;;;;13.90;96.80;;;;;;5442160;26;19999;-50
2024/04/15 06:49:16;;;;;;;;;;;13.90;96.90;;;;;;5449795;26;19935;-51
2024/04/15 06:51:41;;;;;;;;;;;13.90;97.00;;;;;;5445931;26;19949;-48
2024/04/15 06:54:07;;;;;;;;;;;13.90;97.20;;;;;;5446252;26;19929;-49
2024/04/15 06:56:33;;;;;;;;;;;13.90;97.20;;;;;;5450436;26;19948;-50
2024/04/15 06:58:58;;;;;;;;;;;14.00;97.30;;;;;;5445414;26;19929;-49
2024/04/15 07:01:24;;;;;;;;;;;14.00;97.40;;;;;;5453272;26;20444;-49
2024/04/15 07:03:50;;;;;;;;;;;14.00;97.40;;;;;;5444039;26;19997;-53
2024/04/15 07:06:15;;;;;;;;;;;14.10;97.40;;;;;;5424118;26;20403;-48
2024/04/15 07:08:43;;;;;;;;;;;14.10;97.20;;;;;;5440057;26;19974;-49
2024/04/15 07:11:09;;;;;;;;;;;14.20;97.00;;;;;;5442932;26;19935;-50
2024/04/15 07:13:34;;;;;;;;;;;14.20;97.10;;;;;;5461384;26;19935;-50
2024/04/15 07:16:00;;;;;;;;;;;14.20;96.90;;;;;;5440495;26;19940;-50
2024/04/15 07:18:25;;;;;;;;;;;14.20;97.00;;;;;;5457261;26;20275;-51
2024/04/15 07:20:51;;;;;;;;;;;14.30;97.00;;;;;;5435351;26;19936;-51
2024/04/15 07:23:17;;;;;;;;;;;14.30;97.00;;;;;;5448215;26;19932;-53
2024/04/15 07:25:42;;;;;;;;;;;14.30;97.00;;;;;;5480326;26;19939;-48
2024/04/15 07:28:08;;;;;;;;;;;14.30;97.00;;;;;;5495345;26;19961;-48
2024/04/15 07:30:33;;;;;;;;;;;14.30;97.00;;;;;;5494619;26;19928;-48
2024/04/15 07:32:59;;;;;;;;;;;14.40;97.10;;;;;;5459740;26;19981;-49
2024/04/15 07:35:25;;;;;;;;;;;14.30;96.80;;;;;;5457887;26;19935;-48
2024/04/15 07:37:51;;;;;;;;;;;14.40;97.00;;;;;;5458632;26;19929;-48
2024/04/15 07:40:16;;;;;;;;;;;14.40;97.00;;;;;;5443694;26;19935;-48
2024/04/15 07:42:42;;;;;;;;;;;14.40;96.90;;;;;;5453599;26;19929;-49
2024/04/15 07:45:07;;;;;;;;;;;14.40;97.00;;;;;;5457664;26;20263;-49
2024/04/15 07:47:33;;;;;;;;;;;14.50;97.10;;;;;;5456931;26;19936;-48
2024/04/15 07:49:58;;;;;;;;;;;14.50;97.00;;;;;;5457757;26;19997;-48
2024/04/15 07:52:24;;;;;;;;;;;14.50;96.90;;;;;;5446808;26;19957;-48
2024/04/15 07:54:51;;;;;;;;;;;14.50;96.90;;;;;;5444332;26;20022;-49
2024/04/15 07:57:17;;;;;;;;;;;14.50;96.90;;;;;;5432556;26;19935;-48
2024/04/15 07:59:42;;;;;;;;;;;14.50;96.90;;;;;;5456109;26;19941;-48
2024/04/15 08:02:09;;;;;;;;;;;14.50;96.90;;;;;;5433908;26;19928;-48
2024/04/15 08:04:35;;;;;;;;;;;14.60;97.00;;;;;;5457315;26;19940;-48
2024/04/15 08:07:00;;;;;;;;;;;14.60;96.90;;;;;;5446324;26;20018;-48
2024/04/15 08:09:26;;;;;;;;;;;14.60;96.90;;;;;;5445007;26;19937;-49
2024/04/15 08:11:51;;;;;;;;;;;14.60;96.80;;;;;;5427814;26;19929;-50
2024/04/15 08:14:19;;;;;;;;;;;14.60;96.90;;;;;;5420298;26;20296;-52
2024/04/15 08:16:45;;;;;;;;;;;14.70;96.80;;;;;;5415665;26;19942;-53
2024/04/15 08:19:11;;;;;;;;;;;14.70;96.90;;;;;;5427360;26;19929;-53
2024/04/15 08:21:36;;;;;;;;;;;14.80;96.90;;;;;;5392353;26;19936;-53
2024/04/15 08:24:02;;;;;;;;;;;14.70;96.90;;;;;;5421792;26;19957;-52
2024/04/15 08:26:27;;;;;;;;;;;14.80;96.70;;;;;;5420448;26;19974;-52
2024/04/15 08:28:53;;;;;;;;;;;14.80;96.70;;;;;;5416959;26;19980;-52
2024/04/15 08:31:18;;;;;;;;;;;14.80;96.60;;;;;;5423853;26;19936;-52
2024/04/15 08:33:44;;;;;;;;;;;14.80;96.60;;;;;;5434180;26;19929;-53
2024/04/15 08:36:09;;;;;;;;;;;14.90;96.60;;;;;;5420598;26;19929;-53
2024/04/15 08:38:35;;;;;;;;;;;14.90;96.60;;;;;;5420795;26;19933;-52
2024/04/15 08:41:01;;;;;;;;;;;14.90;96.40;;;;;;5419786;26;19929;-53
2024/04/15 08:43:28;;;;;;;;;;;14.90;96.20;;;;;;5419698;26;19928;-53
2024/04/15 08:46:01;;;;;;;;;;;14.90;96.30;;;;;;5418434;26;19933;-53
2024/04/15 08:48:27;;;;;;;;;;;15.00;96.60;;;;;;5419468;26;20434;-51
2024/04/15 08:50:53;;;;;;;;;;;15.00;96.20;;;;;;5403162;26;19936;-53
2024/04/15 08:53:19;;;;;;;;;;;15.00;95.80;;;;;;5414626;26;19929;-53
2024/04/15 08:55:45;;;;;;;;;;;14.90;95.70;;;;;;5414249;26;19998;-53
2024/04/15 08:58:11;;;;;;;;;;;15.00;95.80;;;;;;5419528;26;19928;-52
2024/04/15 09:00:37;;;;;;;;;;;15.00;95.80;;;;;;5399060;26;19953;-52
2024/04/15 09:03:04;;;;;;;;;;;15.00;95.60;;;;;;5399882;26;19934;-53
2024/04/15 09:05:29;;;;;;;;;;;15.00;95.80;;;;;;5433167;26;20267;-53
2024/04/15 09:07:55;;;;;;;;;;;15.00;95.70;;;;;;5418509;26;19929;-53
2024/04/15 09:10:20;;;;;;;;;;;15.00;95.50;;;;;;5396161;26;19929;-53
2024/04/15 09:12:47;;;;;;;;;;;15.00;95.20;;;;;;5419231;26;19933;-53
2024/04/15 09:15:14;;;;;;;;;;;15.00;95.10;;;;;;5443489;26;19941;-53
2024/04/15 09:17:40;;;;;;;;;;;15.00;95.40;;;;;;5417943;26;19929;-53
2024/04/15 09:20:06;;;;;;;;;;;15.10;94.80;;;;;;5419754;26;19937;-52
2024/04/15 09:22:32;;;;;;;;;;;15.00;94.20;;;;;;5417687;26;19976;-49
2024/04/15 09:24:58;;;;;;;;;;;15.00;94.30;;;;;;5421380;26;20339;-56
2024/04/15 09:27:27;;;;;;;;;;;15.00;94.30;;;;;;5419378;26;19933;-53
2024/04/15 09:29:53;;;;;;;;;;;15.00;94.40;;;;;;5431041;26;19929;-53
2024/04/15 09:32:18;;;;;;;;;;;15.00;94.30;;;;;;5426635;26;19929;-53
2024/04/15 09:34:44;;;;;;;;;;;15.10;94.70;;;;;;5426485;26;20019;-53
2024/04/15 09:37:11;;;;;;;;;;;15.10;95.00;;;;;;5417695;26;19940;-52
2024/04/15 09:39:37;;;;;;;;;;;15.10;95.00;;;;;;5409839;26;19936;-51
2024/04/15 09:42:02;;;;;;;;;;;15.10;94.70;;;;;;5419055;26;19929;-52
2024/04/15 09:44:29;;;;;;;;;;;15.10;94.70;;;;;;5419824;26;19948;-52
2024/04/15 09:47:02;;;;;;;;;;;15.10;94.70;;;;;;5417823;26;19929;-52
2024/04/15 09:49:29;;;;;;;;;;;15.10;94.80;;;;;;5422871;26;19929;-52
2024/04/15 09:52:00;;;;;;;;;;;15.20;94.70;;;;;;5417575;26;19936;-54
2024/04/15 09:54:30;;;;;;;;;;;15.20;94.70;;;;;;5398157;26;20345;-53
2024/04/15 09:57:00;;;;;;;;;;;15.20;94.40;;;;;;5435198;26;19929;-53
2024/04/15 09:59:29;;;;;;;;;;;15.10;94.40;;;;;;5409643;26;19936;-52
2024/04/15 10:01:57;;;;;;;;;;;15.10;94.10;;;;;;5411544;26;20357;-54
2024/04/15 10:04:24;;;;;;;;;;;15.20;93.70;;;;;;5435540;26;20005;-54
2024/04/15 10:06:53;;;;;;;;;;;15.20;94.20;;;;;;5442537;26;19969;-54
2024/04/15 10:09:18;;;;;;;;;;;15.20;94.50;;;;;;5407589;26;19933;-51
2024/04/15 10:11:48;;;;;;;;;;;15.20;94.00;;;;;;5444709;26;20308;-52
2024/04/15 10:14:14;;;;;;;;;;;15.20;93.50;;;;;;5413831;26;19929;-53
2024/04/15 10:16:39;;;;;;;;;;;15.20;93.30;;;;;;5442688;26;20264;-53
2024/04/15 10:19:05;;;;;;;;;;;15.20;93.20;;;;;;5439906;26;19929;-54
2024/04/15 10:21:30;;;;;;;;;;;15.20;93.50;;;;;;5426382;26;19977;-52
2024/04/15 10:23:56;;;;;;;;;;;15.20;93.70;;;;;;5455223;26;19928;-53
2024/04/15 10:26:23;;;;;;;;;;;15.20;93.60;;;;;;5450338;26;19929;-54
2024/04/15 10:28:48;;;;;;;;;;;15.20;93.50;;;;;;5418233;26;19936;-53
2024/04/15 10:31:14;;;;;;;;;;;15.20;93.70;;;;;;5412287;26;19937;-54
2024/04/15 10:33:50;;;;;;;;;;;15.20;93.70;;;;;;5418846;26;20023;-50
2024/04/15 10:36:16;;;;;;;;;;;15.20;93.90;;;;;;5439346;26;19968;-50
2024/04/15 10:38:48;;;;;;;;;;;15.20;94.20;;;;;;5409822;26;19936;-51
2024/04/15 10:41:17;;;;;;;;;;;15.20;94.30;;;;;;5418371;26;20333;-52
2024/04/15 10:43:43;;;;;;;;;;;15.20;94.30;;;;;;5369873;26;19945;-49
2024/04/15 10:46:09;;;;;;;;;;;15.20;94.40;;;;;;5409560;26;19938;-49
2024/04/15 10:48:35;;;;;;;;;;;15.20;95.20;;;;;;5400929;26;19936;-50
2024/04/15 10:51:01;;;;;;;;;;;15.20;96.30;;;;;;5410104;26;20002;-53
2024/04/15 10:53:26;;;;;;;;;;;15.20;97.10;;;;;;5440508;26;19973;-54
2024/04/15 10:55:52;;;;;;;;;;;15.20;97.30;;;;;;5443722;26;20446;-52
2024/04/15 10:58:18;;;;;;;;;;;15.10;97.00;;;;;;5404649;26;19955;-52
2024/04/15 11:00:43;;;;;;;;;;;15.10;97.10;;;;;;5417166;26;19935;-54
2024/04/15 11:03:09;;;;;;;;;;;15.10;97.20;;;;;;5387855;26;20001;-53
2024/04/15 11:05:36;;;;;;;;;;;15.20;97.20;;;;;;5411838;26;20372;-48
2024/04/15 11:08:02;;;;;;;;;;;15.20;97.30;;;;;;5420777;26;19977;-53
2024/04/15 11:10:28;;;;;;;;;;;15.20;97.00;;;;;;5440655;26;20694;-50
2024/04/15 11:12:54;;;;;;;;;;;15.20;96.90;;;;;;5416577;26;19998;-51
2024/04/15 11:15:21;;;;;;;;;;;15.20;97.00;;;;;;5404759;26;19928;-54
2024/04/15 11:17:53;;;;;;;;;;;15.30;96.80;;;;;;5381072;26;19929;-53
2024/04/15 11:20:19;;;;;;;;;;;15.30;96.70;;;;;;5405838;26;19935;-52
2024/04/15 11:22:46;;;;;;;;;;;15.30;96.70;;;;;;5417106;26;20425;-53
2024/04/15 11:25:12;;;;;;;;;;;15.20;96.50;;;;;;5433305;26;19961;-52
2024/04/15 11:27:39;;;;;;;;;;;15.30;96.40;;;;;;5440846;26;19929;-53
2024/04/15 11:30:06;;;;;;;;;;;15.30;96.20;;;;;;5432894;26;19997;-52
2024/04/15 11:32:32;;;;;;;;;;;15.30;96.20;;;;;;5420550;26;19936;-48
2024/04/15 11:34:58;;;;;;;;;;;15.30;96.10;;;;;;5440175;26;19937;-49
2024/04/15 11:37:24;;;;;;;;;;;15.30;96.00;;;;;;5421153;26;19929;-49
2024/04/15 11:39:50;;;;;;;;;;;15.30;96.10;;;;;;5438910;26;19928;-49
2024/04/15 11:42:16;;;;;;;;;;;15.30;96.10;;;;;;5406519;26;19957;-51
2024/04/15 11:44:41;;;;;;;;;;;15.30;96.20;;;;;;5410849;26;19929;-49
2024/04/15 11:47:19;;;;;;;;;;;15.40;96.00;;;;;;5439525;26;19941;-51
2024/04/15 11:49:47;;;;;;;;;;;15.30;95.80;;;;;;5412075;26;19929;-51
2024/04/15 11:52:13;;;;;;;;;;;15.40;95.60;;;;;;5400710;26;19936;-51
2024/04/15 11:54:39;;;;;;;;;;;15.40;95.60;;;;;;5418536;26;19933;-51
2024/04/15 11:57:05;;;;;;;;;;;15.40;95.30;;;;;;5422118;26;20261;-53
2024/04/15 11:59:30;;;;;;;;;;;15.40;95.10;;;;;;5423321;26;19997;-53
2024/04/15 12:01:57;;;;;;;;;;;15.40;95.30;;;;;;5421844;26;20375;-52
2024/04/15 12:04:22;;;;;;;;;;;15.40;95.40;;;;;;5425551;26;19939;-50
2024/04/15 12:06:52;;;;;;;;;;;15.40;95.90;;;;;;5427318;26;20404;-52
2024/04/15 12:09:17;;;;;;;;;;;15.40;96.50;;;;;;5413577;26;19937;-52
2024/04/15 12:11:43;;;;;;;;;;;15.30;97.20;;;;;;5423044;26;20054;-51
2024/04/15 12:14:08;;;;;;;;;;;15.30;97.80;;;;;;5425104;26;20360;-51
2024/04/15 12:16:34;;;;;;;;;;;15.30;98.30;;;;;;5450444;26;19929;-50
2024/04/15 12:18:59;;;;;;;;;;;15.30;98.70;;;;;;5439294;26;19935;-49
2024/04/15 12:21:25;;;;;;;;;;;15.30;99.10;;;;;;5433047;26;19928;-48
2024/04/15 12:23:50;;;;;;;;;;;15.30;99.30;;;;;;5431748;26;20300;-49
2024/04/15 12:26:16;;;;;;;;;;;15.30;99.50;;;;;;5413194;26;19937;-49
2024/04/15 12:28:41;;;;;;;;;;;15.30;99.20;;;;;;5409486;26;19933;-49
2024/04/15 12:31:10;;;;;;;;;;;15.30;98.90;;;;;;5418630;26;19929;-49
2024/04/15 12:33:35;;;;;;;;;;;15.40;98.60;;;;;;5456899;26;20348;-49
2024/04/15 12:36:01;;;;;;;;;;;15.40;98.30;;;;;;5457302;26;19929;-48
2024/04/15 12:38:27;;;;;;;;;;;15.40;98.20;;;;;;5438540;26;19928;-49
2024/04/15 12:40:52;;;;;;;;;;;15.40;97.60;;;;;;5445076;26;20355;-49
2024/04/15 12:43:17;;;;;;;;;;;15.40;97.30;;;;;;5424974;26;19941;-48
2024/04/15 12:45:43;;;;;;;;;;;15.40;97.40;;;;;;5444136;26;20023;-48
2024/04/15 12:48:16;;;;;;;;;;;15.40;97.20;;;;;;5421512;26;19929;-48
2024/04/15 12:50:45;;;;;;;;;;;15.40;97.10;;;;;;5452728;26;19940;-49
2024/04/15 12:53:11;;;;;;;;;;;15.40;97.20;;;;;;5435871;26;19933;-48
2024/04/15 12:55:36;;;;;;;;;;;15.50;97.30;;;;;;5430084;26;20271;-52
2024/04/15 12:58:03;;;;;;;;;;;15.50;97.30;;;;;;5457417;26;19929;-49
2024/04/15 13:00:29;;;;;;;;;;;15.50;97.30;;;;;;5432098;26;20329;-49
2024/04/15 13:02:54;;;;;;;;;;;15.50;97.30;;;;;;5457009;26;19935;-48
2024/04/15 13:05:20;;;;;;;;;;;15.50;97.10;;;;;;5432779;26;19936;-49
2024/04/15 13:07:45;;;;;;;;;;;15.50;97.20;;;;;;5435177;26;19929;-50
2024/04/15 13:10:11;;;;;;;;;;;15.50;97.10;;;;;;5428151;26;19939;-49
2024/04/15 13:12:36;;;;;;;;;;;15.50;96.70;;;;;;5437061;26;19935;-49
2024/04/15 13:15:02;;;;;;;;;;;15.50;96.30;;;;;;5451983;26;19954;-51
2024/04/15 13:17:27;;;;;;;;;;;15.50;96.00;;;;;;5457072;26;19929;-49
2024/04/15 13:19:53;;;;;;;;;;;15.50;95.90;;;;;;5448798;26;20250;-51
2024/04/15 13:22:19;;;;;;;;;;;15.50;96.10;;;;;;5439923;26;19936;-53
2024/04/15 13:24:44;;;;;;;;;;;15.50;96.20;;;;;;5455471;26;20396;-53
2024/04/15 13:27:10;;;;;;;;;;;15.50;96.40;;;;;;5433766;26;19940;-53
2024/04/15 13:29:35;;;;;;;;;;;15.60;96.30;;;;;;5413008;26;20279;-53
2024/04/15 13:32:01;;;;;;;;;;;15.60;96.60;;;;;;5412904;26;20376;-51
2024/04/15 13:34:27;;;;;;;;;;;15.60;96.30;;;;;;5418456;26;19933;-53
2024/04/15 13:36:55;;;;;;;;;;;15.60;96.20;;;;;;5419734;26;19937;-51
2024/04/15 13:39:22;;;;;;;;;;;15.60;96.00;;;;;;5418953;26;19929;-54
2024/04/15 13:41:48;;;;;;;;;;;15.60;95.90;;;;;;5383732;26;19933;-53
2024/04/15 13:44:14;;;;;;;;;;;15.60;95.60;;;;;;5425536;26;20356;-54
2024/04/15 13:46:40;;;;;;;;;;;15.60;95.80;;;;;;5417958;26;19935;-53
2024/04/15 13:49:05;;;;;;;;;;;15.60;95.80;;;;;;5435412;26;19929;-53
2024/04/15 13:51:31;;;;;;;;;;;15.70;95.80;;;;;;5414153;26;20369;-54
2024/04/15 13:53:57;;;;;;;;;;;15.60;95.90;;;;;;5416356;26;19934;-53
2024/04/15 13:56:22;;;;;;;;;;;15.60;95.90;;;;;;5418414;26;19929;-53
2024/04/15 13:58:48;;;;;;;;;;;15.70;95.90;;;;;;5413924;26;20339;-54
2024/04/15 14:01:14;;;;;;;;;;;15.60;95.80;;;;;;5420346;26;19929;-54
2024/04/15 14:03:39;;;;;;;;;;;15.60;96.00;;;;;;5421066;26;20287;-53
2024/04/15 14:06:05;;;;;;;;;;;15.70;95.80;;;;;;5417039;26;20330;-53
2024/04/15 14:08:31;;;;;;;;;;;15.60;95.70;;;;;;5430369;26;19929;-53